Flight Track Log - Related Links

Times and Time Zones

All times are in EDT time to prevent confusion due to time zone crossing. See the SWA1223 flight status page for this flight to view local times or setup timezone preferences in your user account.

Time Position Orientation Groundspeed Altitude Reporting Facility
EDT Latitude Longitude Course Direction KTS MPH feet Rate Location/Type
Thu 02:09:14 PM 33.4333 -112.0333 258° West 184 212 1,900  Level Phoenix TRACON
Thu 02:09:36 PM 33.4306 -112.0489 258° West 190 219 2,500 1,643 Climbing Albuquerque Center
Thu 02:10:38 PM 33.4086 -112.1144 248° West 217 250 4,200 2,032 Climbing Albuquerque Center
Thu 02:11:40 PM 33.3700 -112.1814 235° Southwest 262 302 6,700 2,806 Climbing Albuquerque Center
Thu 02:12:42 PM 33.2736 -112.1678 173° South 295 339 10,000 2,806 Climbing Albuquerque Center
Thu 02:13:44 PM 33.1917 -112.1303 159° South 329 379 12,500 2,293 Climbing Albuquerque Center
Thu 02:14:45 PM 33.1739 -112.0267 102° East 324 373 14,700 1,902 Climbing Albuquerque Center
Thu 02:15:47 PM 33.1619 -111.9033 97° East 374 430 16,400 1,887 Climbing Albuquerque Center
Thu 02:16:49 PM 33.1494 -111.7736 97° East 394 453 18,600 2,274 Climbing Albuquerque Center
Thu 02:17:51 PM 33.1161 -111.6117 104° East 423 487 21,100 2,177 Climbing Albuquerque Center
Thu 02:18:53 PM 33.0847 -111.4722 105° East 436 502 23,100 1,790 Climbing Albuquerque Center
Thu 02:19:55 PM 33.0522 -111.3272 105° East 452 520 24,800 1,742 Climbing Albuquerque Center
Thu 02:20:57 PM 33.0197 -111.1783 105° East 465 535 26,700 1,645 Climbing Albuquerque Center
Thu 02:21:59 PM 32.9853 -111.0275 105° East 473 544 28,200 1,403 Climbing Albuquerque Center
Thu 02:23:01 PM 32.9519 -110.8722 104° East 483 556 29,600 1,403 Climbing Albuquerque Center
Thu 02:24:03 PM 32.9072 -110.6819 106° East 496 571 31,100 1,161 Climbing Albuquerque Center
Thu 02:25:05 PM 32.8747 -110.5361 105° East 500 575 32,000 1,016 Climbing Albuquerque Center
Thu 02:26:07 PM 32.8300 -110.3406 105° East 513 590 33,200 968 Climbing Albuquerque Center
Thu 02:27:09 PM 32.7917 -110.1758 105° East 521 600 34,000 871 Climbing Albuquerque Center
Thu 02:28:11 PM 32.7528 -110.0100 106° East 525 604 35,000 484 Climbing Albuquerque Center
Thu 02:29:13 PM 32.7111 -109.8406 106° East 536 617 35,000  Level Albuquerque Center
Thu 02:30:15 PM 32.6711 -109.6742 106° East 534 615 35,000  Level Albuquerque Center
Thu 02:31:17 PM 32.6242 -109.4733 105° East 534 615 35,000  Level Albuquerque Center
Thu 02:32:18 PM 32.5836 -109.3075 106° East 532 612 35,000  Level Albuquerque Center
Thu 02:33:20 PM 32.5433 -109.1417 106° East 534 615 35,000  Level Albuquerque Center
Thu 02:34:22 PM 32.5047 -108.9764 105° East 533 613 35,000  Level Albuquerque Center
Thu 02:35:24 PM 32.4567 -108.7783 106° East 532 612 35,000  Level Albuquerque Center
Thu 02:36:26 PM 32.4156 -108.6117 106° East 534 615 35,000  Level Albuquerque Center
Thu 02:37:28 PM 32.3736 -108.4467 107° East 538 619 35,000  Level Albuquerque Center
Thu 02:38:30 PM 32.3317 -108.2758 106° East 542 624 35,000  Level Albuquerque Center
Thu 02:39:32 PM 32.2883 -108.1064 107° East 542 624 35,000  Level Albuquerque Center
Thu 02:40:34 PM 32.2367 -107.9017 107° East 544 626 35,000  Level Albuquerque Center
Thu 02:41:36 PM 32.1956 -107.7325 106° East 542 624 35,000  Level Albuquerque Center
Thu 02:42:38 PM 32.1525 -107.5628 107° East 543 625 35,000  Level Albuquerque Center
Thu 02:43:40 PM 32.1083 -107.3936 107° East 545 627 35,000  Level Albuquerque Center
Thu 02:44:42 PM 32.0569 -107.1906 107° East 545 627 35,000  Level Albuquerque Center
Thu 02:45:44 PM 32.0131 -107.0247 107° East 541 623 35,000  Level Albuquerque Center
Thu 02:46:46 PM 31.9700 -106.8553 107° East 543 625 35,000  Level Albuquerque Center
Thu 02:47:48 PM 31.9242 -106.6842 107° East 541 623 35,000  Level Albuquerque Center
Thu 02:48:51 PM 31.8797 -106.5236 108° East 541 623 35,000  Level Albuquerque Center
Thu 02:49:53 PM 31.8269 -106.3194 107° East 544 626 35,000  Level Albuquerque Center
Thu 02:50:55 PM 31.7700 -106.1608 113° Southeast 527 606 35,000  Level Albuquerque Center
Thu 02:51:57 PM 31.7100 -106.0039 114° Southeast 526 605 35,000  Level Albuquerque Center
Thu 02:52:59 PM 31.6500 -105.8472 114° Southeast 525 604 35,000  Level Albuquerque Center
Thu 02:54:01 PM 31.5889 -105.6900 114° Southeast 529 609 35,000  Level Albuquerque Center
Thu 02:55:03 PM 31.5283 -105.5311 114° Southeast 533 613 35,000  Level Albuquerque Center
Thu 02:56:05 PM 31.4567 -105.3394 114° Southeast 534 615 35,000  Level Albuquerque Center
Thu 02:57:07 PM 31.3958 -105.1786 114° Southeast 537 618 35,000  Level Albuquerque Center
Thu 02:58:09 PM 31.3333 -105.0183 115° Southeast 537 618 35,000  Level Albuquerque Center
Thu 02:59:11 PM 31.2706 -104.8578 115° Southeast 537 618 35,000  Level Albuquerque Center
Thu 03:00:13 PM 31.2089 -104.6997 114° Southeast 535 616 35,000  Level Albuquerque Center
Thu 03:01:15 PM 31.1467 -104.5431 115° Southeast 531 611 35,000  Level Albuquerque Center
Thu 03:02:17 PM 31.0853 -104.3844 114° Southeast 531 611 35,000  Level Albuquerque Center
Thu 03:03:19 PM 31.0222 -104.2275 115° Southeast 533 613 35,000  Level Albuquerque Center
Thu 03:04:21 PM 30.9461 -104.0381 115° Southeast 536 617 35,000  Level Albuquerque Center
Thu 03:05:23 PM 30.8817 -103.8797 115° Southeast 539 620 35,000  Level Albuquerque Center
Thu 03:06:25 PM 30.8206 -103.7275 115° Southeast 540 621 35,000  Level Albuquerque Center
Thu 03:07:27 PM 30.7572 -103.5686 115° Southeast 543 625 35,000  Level Albuquerque Center
Thu 03:08:29 PM 30.6786 -103.3783 116° Southeast 545 627 35,000  Level Albuquerque Center
Thu 03:09:31 PM 30.6164 -103.2217 115° Southeast 540 621 35,000  Level Albuquerque Center
Thu 03:10:34 PM 30.5528 -103.0664 115° Southeast 538 619 35,000  Level Albuquerque Center
Thu 03:11:36 PM 30.4903 -102.9125 115° Southeast 533 613 35,000  Level Albuquerque Center
Thu 03:12:38 PM 30.4261 -102.7572 116° Southeast 535 616 35,000  Level Albuquerque Center
Thu 03:13:40 PM 30.3500 -102.5722 115° Southeast 534 615 35,000 48 Level Albuquerque Center
Thu 03:14:42 PM 30.2869 -102.4214 116° Southeast 529 609 35,100 677 Climbing Albuquerque Center
Thu 03:15:44 PM 30.2225 -102.2678 116° Southeast 531 611 36,400 919 Climbing Albuquerque Center
Thu 03:16:46 PM 30.1594 -102.1189 116° Southeast 526 605 37,000 290 Climbing Albuquerque Center
Thu 03:17:48 PM 30.0956 -101.9661 116° Southeast 526 605 37,000  Level Albuquerque Center
Thu 03:19:23 PM 29.9867 -101.7047 116° Southeast 528 608 37,000  Level Houston Center
Thu 03:20:25 PM 29.9217 -101.5542 116° Southeast 526 605 37,000  Level Houston Center
Thu 03:21:28 PM 29.8506 -101.4117 120° Southeast 517 595 37,000  Level Houston Center
Thu 03:22:30 PM 29.7608 -101.2928 131° Southeast 495 570 37,000  Level Houston Center
Thu 03:23:32 PM 29.6700 -101.1742 131° Southeast 496 571 37,000  Level Houston Center
Thu 03:24:34 PM 29.5608 -101.0322 131° Southeast 497 572 37,000  Level Houston Center
Thu 03:25:36 PM 29.4714 -100.9147 131° Southeast 492 566 37,000  Level Houston Center
Thu 03:26:38 PM 29.3819 -100.7989 132° Southeast 489 563 37,000  Level Houston Center
Thu 03:27:40 PM 29.3047 -100.6692 124° Southeast 496 571 37,000  Level Houston Center
Thu 03:28:43 PM 29.2325 -100.5314 121° Southeast 505 581 37,000  Level Houston Center
Thu 03:29:45 PM 29.1444 -100.3678 122° Southeast 506 582 37,000  Level Houston Center
Thu 03:30:47 PM 29.0708 -100.2306 122° Southeast 508 585 37,000  Level Houston Center
Thu 03:31:49 PM 28.9972 -100.0931 121° Southeast 509 586 37,000  Level Houston Center
Thu 03:32:51 PM 28.9231 -99.9567 122° Southeast 508 585 37,000  Level Houston Center
Thu 03:33:53 PM 28.8428 -99.8083 122° Southeast 508 585 37,000  Level Houston Center
Thu 03:34:55 PM 28.7681 -99.6725 122° Southeast 507 583 37,000  Level Houston Center
Thu 03:35:57 PM 28.6925 -99.5369 122° Southeast 505 581 37,000  Level Houston Center
Thu 03:37:00 PM 28.6036 -99.3733 122° Southeast 507 583 37,000  Level Houston Center
Thu 03:38:02 PM 28.5292 -99.2394 122° Southeast 502 578 37,000  Level Houston Center
Thu 03:39:04 PM 28.4683 -99.0933 115° Southeast 513 590 37,000  Level Houston Center
Thu 03:40:06 PM 28.4719 -98.9244 89° East 534 615 37,000  Level Houston Center
Thu 03:41:08 PM 28.4797 -98.7536 87° East 539 620 37,000  Level Houston Center
Thu 03:42:10 PM 28.4861 -98.5842 88° East 537 618 37,000  Level Houston Center
Thu 03:43:12 PM 28.4925 -98.4119 88° East 541 623 37,000  Level Houston Center
Thu 03:44:14 PM 28.5025 -98.2031 87° East 543 625 37,000  Level Houston Center
Thu 03:45:17 PM 28.5214 -98.0369 83° East 538 619 37,000  Level Houston Center
Thu 03:46:19 PM 28.5464 -97.8678 80° East 541 623 37,000  Level Houston Center
Thu 03:47:21 PM 28.5706 -97.7028 80° East 536 617 37,000  Level Houston Center
Thu 03:48:23 PM 28.5950 -97.5369 80° East 536 617 37,000  Level Houston Center
Thu 03:49:25 PM 28.6183 -97.3697 81° East 537 618 37,000  Level Houston Center
Thu 03:50:27 PM 28.6472 -97.1706 81° East 536 617 37,000  Level Houston Center
Thu 03:51:29 PM 28.6697 -97.0019 81° East 540 621 37,000  Level Houston Center
Thu 03:52:31 PM 28.6928 -96.8333 81° East 542 624 37,000  Level Houston Center
Thu 03:53:34 PM 28.7147 -96.6656 81° East 542 624 37,000  Level Houston Center
Thu 03:54:36 PM 28.7419 -96.4653 81° East 539 620 37,000  Level Houston Center
Thu 03:55:38 PM 28.7644 -96.2981 81° East 539 620 37,000  Level Houston Center
Thu 03:56:40 PM 28.7867 -96.1297 81° East 540 621 37,000  Level Houston Center
Thu 03:57:42 PM 28.8078 -95.9481 82° East 537 618 37,000  Level Houston Center
Thu 03:58:44 PM 28.8286 -95.7794 82° East 539 620 37,000  Level Houston Center
Thu 03:59:46 PM 28.8492 -95.6125 82° East 537 618 37,000  Level Houston Center
Thu 04:00:49 PM 28.8689 -95.4444 82° East 538 619 37,000  Level Houston Center
Thu 04:01:51 PM 28.8894 -95.2769 82° East 537 618 37,000  Level Houston Center
Thu 04:02:53 PM 28.9122 -95.0769 83° East 535 616 37,000  Level Houston Center
Thu 04:03:55 PM 28.9322 -94.9103 82° East 534 615 37,000  Level Houston Center
Thu 04:04:57 PM 28.9517 -94.7444 82° East 533 613 37,000  Level Houston Center
Thu 04:05:59 PM 28.9694 -94.5786 83° East 530 610 37,000  Level Houston Center
Thu 04:07:01 PM 28.9933 -94.3800 82° East 529 609 37,000  Level Houston Center
Thu 04:08:04 PM 28.9986 -94.2111 88° East 534 615 37,000  Level Houston Center
Thu 04:09:06 PM 28.9992 -94.0472 90° East 522 601 37,000  Level Houston Center
Thu 04:10:08 PM 29.0006 -93.8822 89° East 523 602 37,000  Level Houston Center
Thu 04:11:10 PM 29.0017 -93.7150 90° East 527 606 37,000  Level Houston Center
Thu 04:12:12 PM 29.0028 -93.5489 90° East 526 605 37,000  Level Houston Center
Thu 04:13:14 PM 29.0003 -93.3500 91° East 526 605 37,000  Level Houston Center
Thu 04:14:17 PM 29.0000 -93.1833 90° East 526 605 37,000  Level Houston Center
Thu 04:15:19 PM 29.0006 -93.0167 90° East 527 606 37,000  Level Houston Center
Thu 04:16:21 PM 29.0006 -92.8511 90° East 525 604 37,000  Level Houston Center
Thu 04:17:23 PM 29.0014 -92.6850 90° East 524 603 37,000  Level Houston Center
Thu 04:18:25 PM 29.0003 -92.5097 90° East 523 602 37,000  Level Houston Center
Thu 04:19:27 PM 28.9994 -92.3122 90° East 522 601 37,000  Level Houston Center
Thu 04:20:29 PM 28.9983 -92.1517 90° East 514 592 37,000  Level Houston Center
Thu 04:21:32 PM 28.9969 -91.9775 90° East 515 593 37,000  Level Houston Center
Thu 04:22:34 PM 28.9953 -91.8164 91° East 511 588 37,000  Level Houston Center
Thu 04:23:36 PM 28.9944 -91.6550 90° East 510 587 37,000  Level Houston Center
Thu 04:24:38 PM 28.9922 -91.4936 91° East 510 587 37,000  Level Houston Center
Thu 04:25:40 PM 28.9906 -91.3325 91° East 510 587 37,000  Level Houston Center
Thu 04:26:42 PM 28.9989 -91.1733 87° East 508 585 37,000  Level Houston Center
Thu 04:27:45 PM 29.0306 -90.9844 79° East 506 582 37,000  Level Houston Center
Thu 04:28:47 PM 29.0564 -90.8269 79° East 505 581 37,000  Level Houston Center
Thu 04:29:49 PM 29.0839 -90.6714 79° East 503 579 37,000  Level Houston Center
Thu 04:30:51 PM 29.1089 -90.5136 80° East 505 581 37,000  Level Houston Center
Thu 04:31:53 PM 29.1344 -90.3550 79° East 507 583 37,000  Level Houston Center
Thu 04:32:00 PM 29.1268 -90.3402 79° East  Level FlightAware Approximate
Thu 04:32:55 PM 29.1647 -90.1683 79° East 502 578 37,000  Level Houston Center
Thu 04:33:58 PM 29.2339 -90.0372 59° Northeast 486 559 37,000  Level Houston Center
Thu 04:35:00 PM 29.3281 -89.9350 43° Northeast 470 541 37,000  Level Houston Center
Thu 04:36:02 PM 29.4219 -89.8311 44° Northeast 470 541 37,000  Level Houston Center
Thu 04:37:04 PM 29.5150 -89.7272 44° Northeast 469 540 37,000  Level Houston Center
Thu 04:38:06 PM 29.6267 -89.6022 44° Northeast 469 540 37,000  Level Houston Center
Thu 04:39:08 PM 29.7211 -89.4981 44° Northeast 472 543 37,000  Level Houston Center
Thu 04:40:10 PM 29.8144 -89.3925 44° Northeast 471 542 37,000  Level Houston Center
Thu 04:41:13 PM 29.9078 -89.2872 44° Northeast 472 543 37,000  Level Houston Center
Thu 04:42:15 PM 30.0017 -89.1822 44° Northeast 472 543 37,000  Level Houston Center
Thu 04:43:17 PM 30.1136 -89.0558 44° Northeast 471 542 37,000  Level Houston Center
Thu 04:44:19 PM 30.2036 -88.9481 46° Northeast 465 535 37,000  Level Houston Center
Thu 04:45:21 PM 30.2481 -88.8000 71° East 487 560 37,000  Level Houston Center
Thu 04:46:23 PM 30.2819 -88.6483 75° East 487 560 37,000  Level Houston Center
Thu 04:47:25 PM 30.3153 -88.4986 76° East 485 558 37,000  Level Houston Center
Thu 04:48:28 PM 30.3556 -88.3183 75° East 485 558 37,000  Level Houston Center
Thu 04:49:30 PM 30.3892 -88.1697 75° East 482 555 37,000  Level Houston Center
Thu 04:50:32 PM 30.4242 -88.0214 75° East 481 554 37,000  Level Houston Center
Thu 04:51:34 PM 30.4569 -87.8750 75° East 476 548 37,000  Level Houston Center
Thu 04:52:20 PM 30.4831 -87.7419 77° East 474 545 37,000  Level Jacksonville Center
Thu 04:53:20 PM 30.5175 -87.6064 74° East 474 545 37,000  Level Jacksonville Center
Thu 04:54:20 PM 30.5481 -87.4583 76° East 474 545 37,000  Level Jacksonville Center
Thu 04:55:20 PM 30.5825 -87.3081 75° East 469 540 37,000  Level Jacksonville Center
Thu 04:56:20 PM 30.6167 -87.1600 75° East 475 547 37,000  Level Jacksonville Center
Thu 04:57:20 PM 30.6467 -87.0117 77° East 475 547 37,000  Level Jacksonville Center
Thu 04:58:20 PM 30.6811 -86.8489 76° East 470 541 37,000  Level Jacksonville Center
Thu 04:59:20 PM 30.7147 -86.7006 75° East 470 541 37,000  Level Jacksonville Center
Thu 05:00:20 PM 30.7464 -86.5494 76° East 470 541 37,000  Level Jacksonville Center
Thu 05:01:20 PM 30.7800 -86.3986 75° East 470 541 37,000  Level Jacksonville Center
Thu 05:02:20 PM 30.8089 -86.2519 77° East 470 541 37,000  Level Jacksonville Center
Thu 05:03:20 PM 30.8419 -86.1033 75° East 470 541 37,000  Level Jacksonville Center
Thu 05:04:20 PM 30.8708 -85.9517 77° East 470 541 37,000  Level Jacksonville Center
Thu 05:05:20 PM 30.9036 -85.8003 76° East 470 541 37,000  Level Jacksonville Center
Thu 05:06:20 PM 30.9339 -85.6486 77° East 470 541 37,000  Level Jacksonville Center
Thu 05:07:20 PM 30.9597 -85.5161 77° East 470 541 37,000  Level Jacksonville Center
Thu 05:08:20 PM 30.9919 -85.3644 76° East 470 541 37,000  Level Jacksonville Center
Thu 05:09:20 PM 31.0242 -85.2125 76° East 470 541 37,000  Level Jacksonville Center
Thu 05:10:20 PM 31.0561 -85.0581 76° East 476 548 37,000  Level Jacksonville Center
Thu 05:11:20 PM 31.0861 -84.8914 78° East 476 548 37,000  Level Jacksonville Center
Thu 05:12:20 PM 31.1156 -84.7392 77° East 476 548 37,000  Level Jacksonville Center
Thu 05:13:20 PM 31.1447 -84.5869 77° East 481 554 37,000  Level Jacksonville Center
Thu 05:14:20 PM 31.1758 -84.4344 77° East 481 554 37,000  Level Jacksonville Center
Thu 05:15:20 PM 31.2047 -84.2844 77° East 481 554 37,000  Level Jacksonville Center
Thu 05:16:20 PM 31.2333 -84.1317 78° East 481 554 37,000  Level Jacksonville Center
Thu 05:17:20 PM 31.2619 -83.9814 77° East 481 554 37,000  Level Jacksonville Center
Thu 05:18:20 PM 31.2903 -83.8261 78° East 481 554 37,000  Level Jacksonville Center
Thu 05:19:20 PM 31.3206 -83.6756 77° East 481 554 37,000  Level Jacksonville Center
Thu 05:20:20 PM 31.3444 -83.5372 79° East 481 554 37,000  Level Jacksonville Center
Thu 05:21:20 PM 31.3722 -83.3864 78° East 481 554 37,000  Level Jacksonville Center
Thu 05:22:20 PM 31.4019 -83.2383 77° East 476 548 37,000  Level Jacksonville Center
Thu 05:23:20 PM 31.4314 -83.0850 77° East 476 548 37,000  Level Jacksonville Center
Thu 05:24:20 PM 31.4567 -82.9364 79° East 466 536 37,000  Level Jacksonville Center
Thu 05:25:20 PM 31.4839 -82.7878 78° East 466 536 37,000  Level Jacksonville Center
Thu 05:26:20 PM 31.5106 -82.6392 78° East 466 536 37,000  Level Jacksonville Center
Thu 05:27:20 PM 31.5583 -82.5025 68° East 466 536 37,000  Level Jacksonville Center
Thu 05:28:20 PM 31.6625 -82.4289 31° Northeast 429 494 37,000  Level Jacksonville Center
Thu 05:29:20 PM 31.7686 -82.3525 31° Northeast 420 483 37,000  Level Jacksonville Center
Thu 05:30:20 PM 31.8789 -82.2711 32° Northeast 426 490 37,000  Level Jacksonville Center
Thu 05:31:20 PM 31.9831 -82.1872 34° Northeast 441 507 37,000  Level Jacksonville Center
Thu 05:32:20 PM 32.0764 -82.1178 32° Northeast 441 507 37,000  Level Jacksonville Center
Thu 05:33:20 PM 32.1908 -82.0283 33° Northeast 441 507 37,000  Level Jacksonville Center
Thu 05:34:20 PM 32.2925 -81.9489 33° Northeast 435 501 37,000  Level Jacksonville Center
Thu 05:35:20 PM 32.3858 -81.8767 33° Northeast 435 501 37,000  Level Jacksonville Center
Thu 05:36:20 PM 32.4978 -81.7892 33° Northeast 435 501 37,000  Level Jacksonville Center
Thu 05:37:20 PM 32.5972 -81.7114 33° Northeast 435 501 37,000  Level Jacksonville Center
Thu 05:38:20 PM 32.6906 -81.6386 33° Northeast 435 501 37,000  Level Jacksonville Center
Thu 05:39:20 PM 32.7858 -81.5583 35° Northeast 435 501 37,000  Level Jacksonville Center
Thu 05:40:20 PM 32.8872 -81.4775 34° Northeast 435 501 37,000  Level Jacksonville Center
Thu 05:41:20 PM 32.9886 -81.3967 34° Northeast 435 501 37,000  Level Jacksonville Center
Thu 05:42:20 PM 33.0919 -81.3131 34° Northeast 435 501 37,000  Level Jacksonville Center
Thu 05:43:20 PM 33.1931 -81.2319 34° Northeast 435 501 37,000  Level Jacksonville Center
Thu 05:44:20 PM 33.2944 -81.1531 33° Northeast 435 501 37,000  Level Jacksonville Center
Thu 05:45:20 PM 33.3933 -81.0714 35° Northeast 435 501 37,000  Level Jacksonville Center
Thu 05:46:20 PM 33.4944 -80.9897 34° Northeast 435 501 37,000  Level Jacksonville Center
Thu 05:47:20 PM 33.5956 -80.9078 34° Northeast 435 501 37,000  Level Jacksonville Center
Thu 05:48:20 PM 33.7006 -80.8256 33° Northeast 435 501 37,000  Level Jacksonville Center
Thu 05:49:20 PM 33.8014 -80.7431 34° Northeast 435 501 37,000  Level Jacksonville Center
Thu 05:50:20 PM 33.9022 -80.6581 35° Northeast 435 501 37,000  Level Jacksonville Center
Thu 05:51:20 PM 34.0050 -80.5728 35° Northeast 435 501 37,000  Level Jacksonville Center
Thu 05:52:20 PM 34.1078 -80.4897 34° Northeast 435 501 37,000  Level Jacksonville Center
Thu 05:53:20 PM 34.2125 -80.4042 34° Northeast 440 506 37,000  Level Jacksonville Center
Thu 05:54:20 PM 34.3131 -80.3208 34° Northeast 440 506 37,000  Level Jacksonville Center
Thu 05:55:20 PM 34.4156 -80.2322 35° Northeast 440 506 37,000  Level Jacksonville Center
Thu 05:56:20 PM 34.5181 -80.1458 35° Northeast 435 501 37,000  Level Jacksonville Center
Thu 05:57:20 PM 34.6206 -80.0669 32° Northeast 435 501 37,000  Level Jacksonville Center
Thu 05:58:00 PM 34.6828 -80.0067 39° Northeast 435 501 37,000  Level Washington Center
Thu 05:59:00 PM 34.7839 -79.9239 34° Northeast 449 517 37,000  Level Washington Center
Thu 05:59:59 PM 34.8828 -79.8406 35° Northeast 449 517 37,000  Level Washington Center
Thu 06:00:59 PM 34.9797 -79.7594 34° Northeast 439 505 37,000  Level Washington Center
Thu 06:01:59 PM 35.0808 -79.6731 35° Northeast 439 505 37,000  Level Washington Center
Thu 06:02:59 PM 35.1794 -79.5892 35° Northeast 439 505 37,000  Level Washington Center
Thu 06:03:59 PM 35.2800 -79.5181 30° Northeast 429 494 37,000  Level Washington Center
Thu 06:04:59 PM 35.3847 -79.4414 31° Northeast 424 488 37,000  Level Washington Center
Thu 06:05:59 PM 35.4978 -79.3603 30° Northeast 424 488 37,000  Level Washington Center
Thu 06:06:59 PM 35.5897 -79.2956 30° Northeast 424 488 37,000  Level Washington Center
Thu 06:07:59 PM 35.6944 -79.2161 32° Northeast 429 494 37,000  Level Washington Center
Thu 06:09:00 PM 35.8075 -79.1342 30° Northeast 434 499 37,000  Level Washington Center
Thu 06:09:59 PM 35.9119 -79.0567 31° Northeast 434 499 37,000  Level Washington Center
Thu 06:10:59 PM 36.0183 -78.9792 31° Northeast 434 499 37,000  Level Washington Center
Thu 06:11:59 PM 36.1228 -78.9014 31° Northeast 434 499 37,000  Level Washington Center
Thu 06:13:00 PM 36.2231 -78.8258 31° Northeast 434 499 37,000  Level Washington Center
Thu 06:14:00 PM 36.3294 -78.7503 30° Northeast 434 499 37,000  Level Washington Center
Thu 06:14:59 PM 36.4294 -78.6692 33° Northeast 434 499 37,000  Level Washington Center
Thu 06:15:59 PM 36.5336 -78.5931 30° Northeast 434 499 37,000  Level Washington Center
Thu 06:16:59 PM 36.6356 -78.5194 30° Northeast 434 499 37,000  Level Washington Center
Thu 06:17:59 PM 36.7336 -78.4403 33° Northeast 429 494 37,000  Level Washington Center
Thu 06:18:59 PM 36.8375 -78.3608 31° Northeast 429 494 37,000  Level Washington Center
Thu 06:19:59 PM 36.9436 -78.2817 31° Northeast 434 499 37,000  Level Washington Center
Thu 06:20:59 PM 37.0394 -78.2042 33° Northeast 442 509 37,000  Level Washington Center
Thu 06:21:59 PM 37.1517 -78.1219 30° Northeast 436 502 37,000  Level Washington Center
Thu 06:22:59 PM 37.2578 -78.0394 32° Northeast 436 502 37,000  Level Washington Center
Thu 06:24:00 PM 37.3636 -77.9592 31° Northeast 436 502 37,000  Level Washington Center
Thu 06:25:00 PM 37.4694 -77.8761 32° Northeast 436 502 37,000  Level Washington Center
Thu 06:25:59 PM 37.5733 -77.7875 34° Northeast 436 502 37,000  Level Washington Center
Thu 06:26:59 PM 37.6772 -77.6936 36° Northeast 441 507 37,000 -250 Level Washington Center
Thu 06:27:59 PM 37.7831 -77.5992 35° Northeast 454 522 36,500 -500 Descending Washington Center
Thu 06:28:59 PM 37.8869 -77.5047 36° Northeast 459 528 36,000 -250 Descending Washington Center
Thu 06:29:59 PM 37.9928 -77.4044 37° Northeast 459 528 36,000  Level Washington Center
Thu 06:30:59 PM 38.0856 -77.3225 35° Northeast 459 528 36,000  Level Washington Center
Thu 06:32:00 PM 38.1914 -77.2244 36° Northeast 459 528 36,000  Level Washington Center
Thu 06:33:00 PM 38.2928 -77.1314 36° Northeast 470 541 36,000  Level Washington Center
Thu 06:33:59 PM 38.4067 -77.0250 36° Northeast 470 541 36,000  Level Washington Center
Thu 06:35:00 PM 38.5119 -76.9236 37° Northeast 470 541 36,000  Level Washington Center
Thu 06:36:00 PM 38.6172 -76.8272 36° Northeast 470 541 36,000  Level Washington Center
Thu 06:37:00 PM 38.7244 -76.7253 37° Northeast 481 554 36,000  Level Washington Center
Thu 06:37:59 PM 38.8236 -76.6094 42° Northeast 481 554 36,000  Level Washington Center
Thu 06:39:00 PM 38.9308 -76.4828 43° Northeast 475 547 36,000 -450 Level Washington Center
Thu 06:39:59 PM 39.0108 -76.3903 42° Northeast 475 547 35,100 -2,218 Descending Washington Center
Thu 06:40:59 PM 39.1242 -76.2550 43° Northeast 463 533 31,600 -3,322 Descending Washington Center
Thu 06:42:00 PM 39.2164 -76.1542 40° Northeast 463 533 28,400 -2,281 Descending Washington Center
Thu 06:43:00 PM 39.3169 -76.0422 41° Northeast 475 547 27,000 -706 Descending Washington Center
Thu 06:43:59 PM 39.4131 -75.9219 44° Northeast 475 547 27,000 -50 Level Washington Center
Thu 06:45:00 PM 39.5217 -75.7961 42° Northeast 475 547 26,900 -1,289 Descending Washington Center
Thu 06:46:00 PM 39.6156 -75.6831 43° Northeast 470 541 24,400 -2,500 Descending Washington Center
Thu 06:47:00 PM 39.7094 -75.5728 42° Northeast 465 535 21,900 -2,400 Descending Washington Center
Thu 06:48:00 PM 39.7989 -75.4644 43° Northeast 454 522 19,600 -2,218 Descending Washington Center
Thu 06:48:59 PM 39.8842 -75.3617 43° Northeast 438 504 17,500 -2,319 Descending Washington Center
Thu 06:49:59 PM 39.9694 -75.2586 43° Northeast 415 478 15,000 -2,450 Descending Washington Center
Thu 06:50:59 PM 40.0522 -75.1578 43° Northeast 410 472 12,600 -2,105 Descending Washington Center
Thu 06:51:53 PM 40.1333 -75.0667 41° Northeast 400 460 11,000 -1,368 Descending New York TRACON
Thu 06:52:53 PM 40.2000 -74.9667 49° Northeast 359 413 10,000 -1,250 Descending New York TRACON
Thu 06:53:53 PM 40.2667 -74.8833 44° Northeast 326 375 8,500 -1,050 Descending New York TRACON
Thu 06:54:53 PM 40.3333 -74.8000 44° Northeast 305 351 7,900 -833 Descending New York TRACON
Thu 06:56:00 PM 40.4341 -74.6609 14° North  Level FlightAware Approximate
Thu 06:56:53 PM 40.4500 -74.6667 14° North 309 356 6,000  Level New York TRACON
Thu 06:57:53 PM 40.5333 -74.6333 17° North 301 346 6,100 50 Climbing New York TRACON
Thu 06:58:53 PM 40.6167 -74.6167 North 303 349 6,100  Level New York TRACON
Thu 06:59:53 PM 40.7000 -74.6000 North 302 348 6,100  Level New York TRACON
Thu 07:00:53 PM 40.7667 -74.5667 21° North 304 350 6,100  Level New York TRACON
Thu 07:01:53 PM 40.8500 -74.5333 17° North 304 350 6,100 -450 Level New York TRACON
Thu 07:02:53 PM 40.9333 -74.5000 17° North 310 357 5,200 -500 Descending New York TRACON
Thu 07:03:53 PM 41.0167 -74.4667 17° North 310 357 5,100 -50 Descending New York TRACON
Thu 07:04:53 PM 41.0667 -74.3833 51° Northeast 319 367 5,100  Level New York TRACON
Thu 07:05:53 PM 41.0500 -74.3000 105° East 265 305 5,100 -400 Level New York TRACON
Thu 07:06:53 PM 41.0000 -74.2167 128° Southeast 264 304 4,300 -496 Descending New York TRACON
Thu 07:07:54 PM 40.9500 -74.1667 143° Southeast 246 283 4,100 -150 Descending New York TRACON
Thu 07:08:53 PM 40.9000 -74.1167 143° Southeast 207 238 4,000 -605 Descending New York TRACON
Thu 07:09:53 PM 40.8667 -74.0833 143° Southeast 167 192 2,900 -1,100 Descending New York TRACON
Thu 07:11:00 PM 40.7300 -74.1503 166° South  Level Estimated
Thu 07:18:00 PM 40.6925 -74.1687 166° South  Level Estimated
Thu 07:19:00 PM 40.6925 -74.1687 166° South  Level Estimated
Thu 07:20:00 PM 40.6925 -74.1687 166° South  Level Estimated
Thu 07:21:00 PM 40.6925 -74.1687 166° South  Level Estimated
Thu 07:22:00 PM 40.6925 -74.1687 166° South  Level Estimated

Login

Don't have an account? Register now (free) for customized features, flight alerts, and more!